createdAt,value
2023-05-16T00:01:27.103Z,99463.28
2023-05-16T00:06:29.049Z,99464.16
2023-05-16T00:11:30.679Z,99461.88
2023-05-16T00:16:32.964Z,99466.44
2023-05-16T00:21:34.608Z,99477.66
2023-05-16T00:26:36.010Z,99478.66
2023-05-16T00:31:37.464Z,99480.66
2023-05-16T00:36:38.933Z,99482.38
2023-05-16T00:41:40.574Z,99479.25
2023-05-16T00:46:42.028Z,99486.63
2023-05-16T00:51:43.505Z,99483.25
2023-05-16T00:56:45.060Z,99479.09
2023-05-16T01:01:48.077Z,99491.75
2023-05-16T01:06:49.590Z,99486.50
2023-05-16T01:12:02.325Z,99493.94
2023-05-16T01:17:23.387Z,99500.59
2023-05-16T01:23:13.694Z,99507.44
2023-05-16T01:28:17.516Z,99510.44
2023-05-16T01:33:18.944Z,99513.84
2023-05-16T01:38:30.911Z,99518.38
2023-05-16T01:43:42.958Z,99525.09
2023-05-16T01:48:52.824Z,99528.47
2023-05-16T01:54:01.417Z,99537.03
2023-05-16T01:59:04.211Z,99537.16
2023-05-16T02:04:05.726Z,99528.19
2023-05-16T02:09:07.150Z,99545.97
2023-05-16T02:14:08.550Z,99549.00
2023-05-16T02:19:10.182Z,99544.56
2023-05-16T02:24:11.685Z,99539.03
2023-05-16T02:29:13.077Z,99541.75
2023-05-16T02:34:15.388Z,99550.72
2023-05-16T02:39:16.886Z,99540.56
2023-05-16T02:44:18.284Z,99543.56
2023-05-16T02:49:19.812Z,99554.94
2023-05-16T02:54:21.362Z,99558.38
2023-05-16T02:59:22.784Z,99554.66
2023-05-16T03:04:24.439Z,99555.94
2023-05-16T03:09:26.419Z,99554.94
2023-05-16T03:14:27.868Z,99563.50
2023-05-16T03:19:29.303Z,99562.97
2023-05-16T03:24:31.203Z,99561.53
2023-05-16T03:29:32.722Z,99549.84
2023-05-16T03:34:34.141Z,99556.69
2023-05-16T03:39:35.827Z,99561.50
2023-05-16T03:44:37.305Z,99579.75
2023-05-16T03:49:38.781Z,99581.28
2023-05-16T03:54:40.218Z,99580.13
2023-05-16T03:59:41.701Z,99590.47
2023-05-16T04:04:43.124Z,99610.41
2023-05-16T04:09:44.692Z,99621.78
2023-05-16T04:14:46.844Z,99625.66
2023-05-16T04:19:48.295Z,99633.31
2023-05-16T04:24:50.222Z,99640.00
2023-05-16T04:29:51.902Z,99651.91
2023-05-16T04:34:54.265Z,99648.47
2023-05-16T04:39:55.756Z,99641.31
2023-05-16T04:44:57.340Z,99607.66
2023-05-16T04:49:58.752Z,99618.06
2023-05-16T04:55:00.612Z,99629.44
2023-05-16T05:00:02.289Z,99640.44
2023-05-16T05:05:04.966Z,99657.88
2023-05-16T05:10:08.091Z,99675.53
2023-05-16T05:15:09.797Z,99692.47
2023-05-16T05:20:12.149Z,99700.22
2023-05-16T05:25:14.301Z,99708.00
2023-05-16T05:30:16.262Z,99715.56
2023-05-16T05:35:17.799Z,99722.59
2023-05-16T05:40:19.267Z,99724.09
2023-05-16T05:45:20.714Z,99735.47
2023-05-16T05:50:22.271Z,99723.28
2023-05-16T05:55:23.714Z,99721.13
2023-05-16T06:00:25.259Z,99718.00
2023-05-16T06:05:26.996Z,99717.59
2023-05-16T06:10:28.629Z,99717.19
2023-05-16T06:15:30.392Z,99716.16
2023-05-16T06:20:31.889Z,99728.81
2023-05-16T06:25:33.344Z,99725.38
2023-05-16T06:30:34.920Z,99732.41
2023-05-16T06:35:36.478Z,99737.63
2023-05-16T06:40:38.062Z,99737.16
2023-05-16T06:45:39.519Z,99741.81
2023-05-16T06:50:41.169Z,99753.97
2023-05-16T06:55:42.640Z,99766.81
2023-05-16T07:00:44.201Z,99757.09
2023-05-16T07:05:45.983Z,99766.34
2023-05-16T07:10:47.476Z,99772.91
2023-05-16T07:15:48.966Z,99771.88
2023-05-16T07:20:51.060Z,99757.88
2023-05-16T07:25:53.359Z,99751.25
2023-05-16T07:30:55.227Z,99755.09
2023-05-16T07:36:07.757Z,99749.50
2023-05-16T07:41:16.655Z,99757.00
2023-05-16T07:46:18.180Z,99762.25
2023-05-16T07:51:19.690Z,99766.13
2023-05-16T07:56:21.754Z,99773.09
2023-05-16T08:01:23.638Z,99784.88
2023-05-16T08:06:25.366Z,99785.53
2023-05-16T08:11:27.073Z,99787.88
2023-05-16T08:16:28.544Z,99794.28
2023-05-16T08:21:31.852Z,99796.19
2023-05-16T08:26:33.473Z,99803.78
2023-05-16T08:31:35.031Z,99823.88
2023-05-16T08:36:37.835Z,99829.41
2023-05-16T08:41:39.767Z,99831.81
2023-05-16T08:46:41.678Z,99827.63
2023-05-16T08:51:43.809Z,99835.16
2023-05-16T08:56:45.937Z,99839.91
2023-05-16T09:01:47.991Z,99849.81
2023-05-16T09:06:50.203Z,99856.53
2023-05-16T09:11:51.693Z,99857.84
2023-05-16T09:17:12.339Z,99875.09
2023-05-16T09:22:15.296Z,99849.56
2023-05-16T09:27:16.758Z,99865.81
2023-05-16T09:32:18.628Z,99869.06
2023-05-16T09:37:20.235Z,99882.28
2023-05-16T09:42:22.780Z,99898.88
2023-05-16T09:47:27.920Z,99899.56
2023-05-16T09:52:30.064Z,99900.69
2023-05-16T09:57:31.560Z,99900.09
2023-05-16T10:02:33.580Z,99907.84
2023-05-16T10:07:36.461Z,99914.59
2023-05-16T10:12:38.325Z,99901.50
2023-05-16T10:17:41.062Z,99902.22
2023-05-16T10:22:44.474Z,99890.28
2023-05-16T10:27:47.412Z,99902.34
2023-05-16T10:32:51.911Z,99906.38
2023-05-16T10:37:54.333Z,99905.88
2023-05-16T10:43:03.960Z,99911.22
2023-05-16T10:48:06.942Z,99901.00
2023-05-16T10:53:18.322Z,99905.16
2023-05-16T10:58:41.215Z,99893.66
2023-05-16T11:04:01.621Z,99898.41
2023-05-16T11:09:10.070Z,99891.56
2023-05-16T11:14:33.418Z,99890.59
2023-05-16T11:19:59.270Z,99893.06
2023-05-16T11:25:07.992Z,99897.16
2023-05-16T11:30:15.572Z,99892.47
2023-05-16T11:35:18.320Z,99884.22
2023-05-16T11:40:20.008Z,99891.34
2023-05-16T11:45:24.749Z,99879.31
2023-05-16T11:50:26.493Z,99891.66
2023-05-16T11:55:42.100Z,99893.91
2023-05-16T12:00:51.331Z,99905.38
2023-05-16T12:05:54.365Z,99906.81
2023-05-16T12:10:56.315Z,99906.09
2023-05-16T12:15:58.640Z,99915.53
2023-05-16T12:21:00.269Z,99900.72
2023-05-16T12:26:07.859Z,99897.09
2023-05-16T12:31:31.072Z,99895.69
2023-05-16T12:36:37.728Z,99912.38
2023-05-16T12:41:43.254Z,99917.69
2023-05-16T12:46:51.789Z,99915.00
2023-05-16T12:51:54.212Z,99925.47
2023-05-16T12:56:55.855Z,99921.13
2023-05-16T13:01:57.489Z,99925.09
2023-05-16T13:06:59.883Z,99924.25
2023-05-16T13:12:01.733Z,99928.38
2023-05-16T13:17:04.584Z,99924.75
2023-05-16T13:22:06.306Z,99914.53
2023-05-16T13:27:07.789Z,99927.00
2023-05-16T13:32:09.577Z,99922.53
2023-05-16T13:37:11.185Z,99939.19
2023-05-16T13:42:12.709Z,99940.72
2023-05-16T13:47:14.400Z,99942.31
2023-05-16T13:52:16.444Z,99952.16
2023-05-16T13:57:17.911Z,99954.97
2023-05-16T14:02:19.654Z,99961.34
2023-05-16T14:07:21.240Z,99964.13
2023-05-16T14:12:22.711Z,99954.22
2023-05-16T14:17:24.152Z,99960.97
2023-05-16T14:22:25.650Z,99948.19
2023-05-16T14:27:27.169Z,99938.97
2023-05-16T14:32:28.756Z,99936.13
2023-05-16T14:37:30.345Z,99938.31
2023-05-16T14:42:32.920Z,99931.34
2023-05-16T14:47:34.549Z,99942.09
2023-05-16T14:52:38.951Z,99921.53
2023-05-16T14:57:41.308Z,99915.31
2023-05-16T15:02:43.807Z,99942.94
2023-05-16T15:07:45.389Z,99936.97
2023-05-16T15:12:46.858Z,99939.28
2023-05-16T15:17:48.565Z,99952.69
2023-05-16T15:22:50.300Z,99948.97
2023-05-16T15:27:51.798Z,99968.44
2023-05-16T15:32:53.420Z,99973.44
2023-05-16T15:37:56.659Z,99972.59
2023-05-16T15:42:58.143Z,99971.97
2023-05-16T15:47:59.645Z,99972.81
2023-05-16T15:53:01.146Z,99982.34
2023-05-16T15:58:03.837Z,99981.75
2023-05-16T16:03:05.781Z,99976.53
2023-05-16T16:08:07.409Z,99981.38
2023-05-16T16:13:08.887Z,99961.09
2023-05-16T16:18:11.682Z,99967.75
2023-05-16T16:23:13.488Z,99985.00
2023-05-16T16:28:14.983Z,99973.63
2023-05-16T16:33:17.028Z,99988.84
2023-05-16T16:38:19.164Z,99991.09
2023-05-16T16:43:20.675Z,100005.09
2023-05-16T16:48:22.148Z,99995.75
2023-05-16T16:53:23.618Z,99991.88
2023-05-16T16:58:25.177Z,100005.06
2023-05-16T17:03:26.719Z,100012.53
2023-05-16T17:08:28.361Z,100018.84
2023-05-16T17:13:33.727Z,100021.09
2023-05-16T17:18:36.863Z,100024.94
2023-05-16T17:23:38.533Z,100025.97
2023-05-16T17:28:40.674Z,100033.22
2023-05-16T17:33:42.279Z,100041.25
2023-05-16T17:38:43.866Z,100031.25
2023-05-16T17:43:45.672Z,100040.22
2023-05-16T17:48:47.309Z,100042.69
2023-05-16T17:53:50.233Z,100050.38
2023-05-16T17:58:53.380Z,100055.69
2023-05-16T18:03:55.070Z,100063.25
2023-05-16T18:08:56.602Z,100072.38
2023-05-16T18:13:58.138Z,100067.66
2023-05-16T18:18:59.768Z,100064.53
2023-05-16T18:24:01.447Z,100059.78
2023-05-16T18:29:03.667Z,100059.09
2023-05-16T18:34:05.167Z,100074.41
2023-05-16T18:39:07.169Z,100088.06
2023-05-16T18:44:08.672Z,100081.78
2023-05-16T18:49:10.243Z,100089.78
2023-05-16T18:54:11.702Z,100101.78
2023-05-16T18:59:13.144Z,100103.06
2023-05-16T19:04:14.741Z,100106.31
2023-05-16T19:09:16.396Z,100116.03
2023-05-16T19:14:17.908Z,100116.63
2023-05-16T19:19:19.519Z,100126.25
2023-05-16T19:24:21.218Z,100127.16
2023-05-16T19:29:22.715Z,100139.63
2023-05-16T19:34:26.544Z,100131.81
2023-05-16T19:39:28.194Z,100133.97
2023-05-16T19:44:29.684Z,100141.38
2023-05-16T19:49:34.618Z,100138.19
2023-05-16T19:54:36.222Z,100140.16
2023-05-16T19:59:37.707Z,100140.50
2023-05-16T20:04:41.356Z,100138.19
2023-05-16T20:09:42.917Z,100148.13
2023-05-16T20:14:44.468Z,100140.06
2023-05-16T20:19:46.642Z,100153.50
2023-05-16T20:24:48.208Z,100144.31
2023-05-16T20:29:49.712Z,100143.25
2023-05-16T20:34:51.332Z,100150.84
2023-05-16T20:39:54.160Z,100155.25
2023-05-16T20:44:55.688Z,100156.63
2023-05-16T20:49:57.179Z,100144.06
2023-05-16T20:55:01.657Z,100157.72
2023-05-16T21:00:04.013Z,100167.88
2023-05-16T21:05:23.271Z,100176.22
2023-05-16T21:10:27.187Z,100188.22
2023-05-16T21:15:28.931Z,100179.84
2023-05-16T21:20:30.814Z,100177.53
2023-05-16T21:25:32.295Z,100175.09
2023-05-16T21:30:33.760Z,100188.09
2023-05-16T21:35:35.307Z,100177.22
2023-05-16T21:40:36.819Z,100172.31
2023-05-16T21:45:40.116Z,100174.81
2023-05-16T21:50:43.871Z,100176.81
2023-05-16T21:55:45.428Z,100174.94
2023-05-16T22:01:11.822Z,100179.50
2023-05-16T22:06:13.341Z,100186.75
2023-05-16T22:11:15.025Z,100181.94
2023-05-16T22:16:16.480Z,100177.19
2023-05-16T22:21:17.996Z,100192.69
2023-05-16T22:26:19.451Z,100175.94
2023-05-16T22:31:21.179Z,100185.59
2023-05-16T22:36:22.629Z,100184.72
2023-05-16T22:41:24.114Z,100182.41
2023-05-16T22:46:25.874Z,100183.88
2023-05-16T22:51:27.339Z,100186.38
2023-05-16T22:56:28.805Z,100184.19
2023-05-16T23:01:30.767Z,100183.97
2023-05-16T23:06:32.604Z,100181.69
2023-05-16T23:11:34.224Z,100194.59
2023-05-16T23:16:35.776Z,100188.81
2023-05-16T23:21:37.540Z,100190.47
2023-05-16T23:26:39.023Z,100185.94
2023-05-16T23:31:40.848Z,100178.81
2023-05-16T23:36:42.365Z,100176.84
2023-05-16T23:41:43.852Z,100187.66
2023-05-16T23:46:45.338Z,100195.28
2023-05-16T23:51:57.532Z,100200.50
2023-05-16T23:56:59.846Z,100194.06
